Graham, Kentucky
Current Conditions -  °F | °C
As of 10:55 AM on Wednesday 22 Oct 2014 (Local Time) from K2I0 Reporting Station
Clear Clear  
Wind Chill: 55°   Ceiling: Unl
Heat Index: 55°   Visibility: 10mi
Dew Point: 42°   Wind: 8mph
Humidity: 61%   Direction: 60°ENE
Pressure: 30.31"   Gusts: NA
Location:  37.25°N, 87.28°W
Report Text: K2I0 221555Z AUTO 06007KT 10SM CLR 13/05 A3031 RMK AO2 T01270054
Loading
Personal Weather Stations






























Interactive Weather Map
Tropical Storm Tracking
New forecast layout! Learn more

10-Day Weather Forecast

Advertisements
Track Severe Weather on mobile